• Join FlightAware (Why Join?)
  • Login
  • US Flag 
12:54PM EDT


 

Airport Tracker/Info


-or-


 

Live Flight TrackerFlight Track Log ✈ UAL5829 ✈ 26-Apr-2013 ✈ KORF - KORD

Flight Track Log - Related Links

Times and Time Zones

All times are in EDT time to prevent confusion due to time zone crossing. See the UAL5829 flight status page for this flight to view local times or setup timezone preferences in your user account.

Time Position Orientation Groundspeed Altitude Reporting Facility
EDT Latitude Longitude Course Direction KTS MPH feet Rate Location/Type
02:02PM 36.9431 -76.2025 359° North 213 245 2,400  Level Washington Center
02:03PM 36.9447 -76.2806 272° West 257 296 3,600 1,560 Climbing Washington Center
02:04PM 36.9444 -76.3325 270° West 264 304 5,000 1,980 Climbing Washington Center
02:05PM 36.9417 -76.4208 268° West 264 304 7,100 2,160 Climbing Washington Center
02:06PM 36.9392 -76.5092 268° West 264 304 9,400 1,680 Climbing Washington Center
02:07PM 36.9508 -76.6003 279° West 269 310 10,500 900 Climbing Washington Center
02:08PM 36.9750 -76.7072 286° West 290 334 11,300 1,200 Climbing Washington Center
02:09PM 36.9989 -76.8142 286° West 309 356 13,000 1,440 Climbing Washington Center
02:10PM 37.0186 -76.9236 283° West 320 368 14,200 1,200 Climbing Washington Center
02:11PM 37.0444 -77.0361 286° West 325 374 15,400 1,200 Climbing Washington Center
02:12PM 37.0639 -77.1483 282° West 325 374 16,600 1,080 Climbing Washington Center
02:13PM 37.0581 -77.2681 267° West 336 387 17,600 780 Climbing Washington Center
02:14PM 37.0439 -77.3847 261° West 336 387 18,200 840 Climbing Washington Center
02:15PM 37.0317 -77.5067 263° West 348 400 19,300 1,020 Climbing Washington Center
02:16PM 37.0547 -77.6219 284° West 348 400 20,300 960 Climbing Washington Center
02:17PM 37.1136 -77.7172 308° West 337 388 21,300 1,020 Climbing Washington Center
02:18PM 37.1703 -77.8203 305° West 343 395 22,300 1,020 Climbing Washington Center
02:19PM 37.2289 -77.9158 308° West 349 402 23,400 1,020 Climbing Washington Center
02:20PM 37.2953 -78.0328 306° West 354 407 24,600 1,080 Climbing Washington Center
02:21PM 37.3517 -78.1314 306° West 354 407 25,900 1,140 Climbing Washington Center
02:22PM 37.4061 -78.2219 307° West 342 394 27,000 540 Climbing Washington Center
02:23PM 37.4622 -78.3181 306° West 342 394 27,000 420 Level Washington Center
02:24PM 37.5203 -78.4275 304° West 342 394 27,900 840 Climbing Washington Center
02:25PM 37.5744 -78.5186 307° West 337 388 28,800 1,020 Climbing Washington Center
02:26PM 37.6244 -78.6097 305° West 332 382 30,000 1,080 Climbing Washington Center
02:27PM 37.6764 -78.6983 307° West 322 371 31,000 480 Climbing Washington Center
02:28PM 37.7222 -78.7792 306° West 317 365 31,000  Level Washington Center
02:29PM 37.7758 -78.8758 305° West 322 371 31,000 240 Level Washington Center
02:30PM 37.8294 -78.9731 305° West 335 386 31,600 720 Climbing Washington Center
02:31PM 37.8889 -79.0808 305° West 341 392 32,500 660 Climbing Washington Center
02:32PM 37.9489 -79.1731 310° West 341 392 33,000 240 Climbing Washington Center
02:33PM 38.0086 -79.2683 309° West 346 398 33,000  Level Washington Center
02:34PM 38.0622 -79.3475 311° West 341 392 33,000 1,440 Level Washington Center
02:35PM 38.1219 -79.4375 310° West 336 387 36,000 360 Climbing Washington Center
02:36PM 38.1797 -79.5250 310° West 330 380 33,800 -1,020 Descending Washington Center
02:37PM 38.2411 -79.6208 309° West 330 380 34,000 60 Climbing Washington Center
02:38PM 38.2986 -79.7111 309° West 330 380 34,000  Level Washington Center
02:39PM 38.3581 -79.7992 311° West 330 380 34,000  Level Washington Center
02:40PM 38.4133 -79.8897 308° West 330 380 34,000  Level Washington Center
02:41PM 38.4689 -79.9700 311° West 330 380 34,000  Level Washington Center
02:42PM 38.5281 -80.0611 310° West 335 386 34,000  Level Washington Center
02:44PM 38.6542 -80.2539 310° West 330 380 34,000  Level Indianapolis Center
02:45PM 38.7136 -80.3456 310° West 334 384 34,000  Level Indianapolis Center
02:46PM 38.7717 -80.4364 309° West 332 382 34,000  Level Indianapolis Center
02:48PM 38.8300 -80.5261 310° West 328 377 34,000  Level Indianapolis Center
02:49PM 38.9003 -80.6369 309° West 333 383 34,000  Level Indianapolis Center
02:50PM 38.9583 -80.7278 309° West 330 380 34,000  Level Indianapolis Center
02:51PM 39.0167 -80.8197 309° West 332 382 34,000  Level Indianapolis Center
02:52PM 39.0600 -80.9217 299° West 327 376 34,000  Level Indianapolis Center
02:53PM 39.1081 -81.0217 302° West 330 380 34,000  Level Indianapolis Center
02:54PM 39.1567 -81.1219 302° West 332 382 34,000  Level Indianapolis Center
02:55PM 39.2150 -81.2428 302° West 333 383 34,000  Level Indianapolis Center
02:56PM 39.2628 -81.3442 301° West 333 383 34,000  Level Indianapolis Center
02:57PM 39.3111 -81.4458 302° West 333 383 34,000  Level Indianapolis Center
02:58PM 39.3589 -81.5478 301° West 333 383 34,000  Level Indianapolis Center
02:59PM 39.4078 -81.6503 302° West 335 386 34,000  Level Indianapolis Center
03:00PM 39.4650 -81.7744 301° West 337 388 34,000  Level Indianapolis Center
03:01PM 39.5133 -81.8778 301° West 335 386 34,000  Level Indianapolis Center
03:02PM 39.5622 -81.9808 302° West 337 388 34,000  Level Indianapolis Center
03:03PM 39.6103 -82.0858 301° West 339 390 34,000  Level Indianapolis Center
03:04PM 39.6581 -82.1889 301° West 337 388 34,000  Level Indianapolis Center
03:05PM 39.7150 -82.3117 301° West 337 388 34,000 -60 Level Indianapolis Center
03:06PM 39.7633 -82.4183 301° West 339 390 33,900  Descending Indianapolis Center
03:07PM 39.8114 -82.5228 301° West 337 388 34,000  Climbing Indianapolis Center
03:08PM 39.8603 -82.6283 301° West 337 388 34,000  Level Indianapolis Center
03:09PM 39.9083 -82.7356 300° West 340 391 34,000 -60 Level Indianapolis Center
03:10PM 39.9564 -82.8403 301° West 337 388 33,900  Descending Indianapolis Center
03:11PM 40.0047 -82.9472 301° West 339 390 34,000  Climbing Indianapolis Center
03:12PM 40.0594 -83.0711 300° West 338 389 34,000  Level Indianapolis Center
03:13PM 40.1075 -83.1769 301° West 337 388 34,000  Level Indianapolis Center
03:14PM 40.1550 -83.2836 300° West 340 391 34,000  Level Indianapolis Center
03:15PM 40.2031 -83.3900 301° West 339 390 34,000  Level Indianapolis Center
03:16PM 40.2503 -83.4972 300° West 339 390 34,000  Level Indianapolis Center
03:17PM 40.3058 -83.6231 300° West 339 390 34,000  Level Indianapolis Center
03:19PM 40.3547 -83.7333 300° West 346 398 34,000  Level Indianapolis Center
03:20PM 40.4028 -83.8425 300° West 343 395 34,000  Level Indianapolis Center
03:21PM 40.4511 -83.9525 300° West 348 400 34,000  Level Indianapolis Center
03:22PM 40.5006 -84.0644 300° West 351 404 34,000  Level Indianapolis Center
03:23PM 40.5478 -84.1753 299° West 347 399 34,000  Level Indianapolis Center
03:24PM 40.5961 -84.2881 299° West 349 402 34,000  Level Indianapolis Center
03:25PM 40.6531 -84.4194 300° West 352 405 34,000  Level Indianapolis Center
03:25PM 40.6783 -84.4772 300° West 353 406 34,000  Level Chicago Center
03:26PM 40.7267 -84.5917 299° West 356 410 34,000  Level Chicago Center
03:27PM 40.7761 -84.7058 300° West 358 412 34,000 -180 Level Chicago Center
03:28PM 40.8244 -84.8214 299° West 359 413 33,700 -900 Descending Chicago Center
03:29PM 40.8711 -84.9303 300° West 349 402 32,200 -1,920 Descending Chicago Center
03:30PM 40.9169 -85.0392 299° West 341 392 29,800 -1,560 Descending Chicago Center
03:31PM 40.9683 -85.1628 299° West 325 374 29,000 -420 Descending Chicago Center
03:33PM 41.0244 -85.2561 309° West 325 374 29,000  Level Chicago Center
03:34PM 41.0808 -85.3525 308° West 330 380 29,000  Level Chicago Center
03:35PM 41.1142 -85.4619 292° West 323 372 29,000 -240 Level Chicago Center
03:36PM 41.1489 -85.5775 292° West 330 380 28,600 -1,260 Descending Chicago Center
03:37PM 41.1853 -85.7008 291° West 347 399 26,400 -1,800 Descending Chicago Center
03:38PM 41.2289 -85.8508 291° West 360 414 25,000 -720 Descending Chicago Center
03:39PM 41.2650 -85.9775 291° West 364 419 25,000  Level Chicago Center
03:40PM 41.3000 -86.1031 290° West 361 415 25,000  Level Chicago Center
03:41PM 41.3319 -86.2292 289° West 359 413 25,000 -60 Level Chicago Center
03:42PM 41.3636 -86.3572 288° West 363 418 24,900 -1,080 Descending Chicago Center
03:43PM 41.3958 -86.4861 288° West 367 422 22,800 -2,100 Descending Chicago Center
03:44PM 41.4275 -86.6133 288° West 363 418 20,600 -2,220 Descending Chicago Center
03:45PM 41.4628 -86.7561 288° West 361 415 18,300 -1,860 Descending Chicago Center
03:46PM 41.4925 -86.8764 288° West 346 398 16,800 -1,920 Descending Chicago Center
03:47PM 41.5283 -87.0225 288° West 347 399 14,400 -1,980 Descending Chicago Center
03:48PM 41.5556 -87.1403 287° West 337 388 12,800 -1,500 Descending Chicago Center
03:49PM 41.5889 -87.2561 291° West 338 389 11,300 -1,320 Descending Chicago Center
03:50PM 41.6500 -87.3550 310° West 346 398 10,100 -660 Descending Chicago Center
03:51PM 41.7086 -87.4506 309° West 338 389 10,000 -300 Descending Chicago Center
03:52PM 41.7750 -87.5561 310° West 304 350 9,600 -1,020 Descending Chicago Center
03:53PM 41.8167 -87.6333 306° West 264 304 8,000 -1,320 Descending Chicago TRACON
03:54PM 41.8667 -87.7000 315° West 275 316 7,000 -540 Descending Chicago TRACON
03:55PM 41.9500 -87.7000 360° North 253 291 7,000 -840 Level Chicago TRACON
03:56PM 42.0167 -87.7000 360° North 249 287 5,400 -1,800 Descending Chicago TRACON
03:57PM 42.0667 -87.7333 334° Northwest 218 251 3,500 -1,440 Descending Chicago TRACON
03:58PM 42.0500 -87.7833 246° West 173 199 2,500 -840 Descending Chicago TRACON
03:59PM 42.0167 -87.8333 228° Southwest 146 168 1,900 -720 Descending Chicago TRACON
04:00PM 41.9833 -87.8667 217° Southwest 124 143 1,100 -780 Descending Chicago TRACON
04:02PM 41.9667 -87.9000 226° Southwest  Level FlightAware Approximate